De Witt, New York
Current Conditions -  °F | °C
As of 5:54 AM on Sunday 21 Dec 2014 (Local Time) from KSYR Reporting Station
Light Snow Light Snow  
Wind Chill: 26°   Ceiling: 2800
Heat Index: 26°   Visibility: 9mi
Dew Point: 24°   Wind: 0mph
Humidity: 92%   Direction: NA
Pressure: 30.3"   Gusts: NA
Location:  43.0412°N, 76.074°W
Report Text: KSYR 211054Z 00000KT 9SM -SN OVC028 M03/M04 A3030 RMK AO2 SNB38 SLP262 P0000 T10331044 $
Loading
Personal Weather Stations






























Interactive Weather Map New forecast layout! Learn more

10-Day Weather Forecast

Advertisements
Track Severe Weather on mobile